sensor_id;sensor_type;location;lat;lon;timestamp;pressure;altitude;pressure_sealevel;temperature;humidity
30073;BME280;16897;52.422;13.678;2022-07-29T00:00:00;101562.13;;;18.81;40.76
30073;BME280;16897;52.422;13.678;2022-07-29T00:04:01;101553.41;;;18.68;40.63
30073;BME280;16897;52.422;13.678;2022-07-29T00:08:03;101569.69;;;18.74;40.95
30073;BME280;16897;52.422;13.678;2022-07-29T00:12:06;101513.78;;;18.44;40.82
30073;BME280;16897;52.422;13.678;2022-07-29T00:16:07;101573.78;;;18.78;40.89
30073;BME280;16897;52.422;13.678;2022-07-29T00:20:09;101559.19;;;18.73;40.71
30073;BME280;16897;52.422;13.678;2022-07-29T00:24:11;101510.75;;;18.37;40.74
30073;BME280;16897;52.422;13.678;2022-07-29T00:28:12;101519.19;;;18.42;40.71
30073;BME280;16897;52.422;13.678;2022-07-29T00:32:14;101551.22;;;18.62;40.96
30073;BME280;16897;52.422;13.678;2022-07-29T00:36:16;101563.72;;;18.60;40.86
30073;BME280;16897;52.422;13.678;2022-07-29T00:40:17;101548.66;;;18.49;41.04
30073;BME280;16897;52.422;13.678;2022-07-29T00:44:19;101562.63;;;18.51;40.98
30073;BME280;16897;52.422;13.678;2022-07-29T00:48:21;101536.00;;;18.41;41.26
30073;BME280;16897;52.422;13.678;2022-07-29T00:52:22;101552.88;;;18.51;41.18
30073;BME280;16897;52.422;13.678;2022-07-29T00:56:24;101538.06;;;18.38;41.17
30073;BME280;16897;52.422;13.678;2022-07-29T01:00:26;101541.44;;;18.40;41.32
30073;BME280;16897;52.422;13.678;2022-07-29T01:04:29;101533.22;;;18.31;41.02
30073;BME280;16897;52.422;13.678;2022-07-29T01:08:32;101523.81;;;18.27;41.26
30073;BME280;16897;52.422;13.678;2022-07-29T01:12:34;101446.09;;;17.70;41.26
30073;BME280;16897;52.422;13.678;2022-07-29T01:16:45;101544.38;;;18.24;41.49
30073;BME280;16897;52.422;13.678;2022-07-29T01:29:57;101506.31;;;18.02;41.53
30073;BME280;16897;52.422;13.678;2022-07-29T01:34:02;101515.59;;;18.08;41.42
30073;BME280;16897;52.422;13.678;2022-07-29T01:38:20;101512.22;;;18.06;41.42
30073;BME280;16897;52.422;13.678;2022-07-29T01:42:27;101511.59;;;18.02;41.42
30073;BME280;16897;52.422;13.678;2022-07-29T01:46:34;101483.66;;;17.87;41.75
30073;BME280;16897;52.422;13.678;2022-07-29T01:50:40;101475.84;;;17.85;41.71
30073;BME280;16897;52.422;13.678;2022-07-29T01:54:49;101454.75;;;17.73;41.56
30073;BME280;16897;52.422;13.678;2022-07-29T01:58:52;101443.28;;;17.61;41.87
30073;BME280;16897;52.422;13.678;2022-07-29T02:02:55;101442.78;;;17.56;41.72
30073;BME280;16897;52.422;13.678;2022-07-29T02:07:07;101454.69;;;17.61;41.80
30073;BME280;16897;52.422;13.678;2022-07-29T02:11:11;101398.72;;;17.32;42.02
30073;BME280;16897;52.422;13.678;2022-07-29T02:15:13;101457.94;;;17.65;41.85
30073;BME280;16897;52.422;13.678;2022-07-29T02:19:17;101436.66;;;17.55;42.05
30073;BME280;16897;52.422;13.678;2022-07-29T02:23:21;101421.25;;;17.49;41.97
30073;BME280;16897;52.422;13.678;2022-07-29T02:27:24;101442.03;;;17.54;41.92
30073;BME280;16897;52.422;13.678;2022-07-29T02:31:32;101382.19;;;17.17;42.10
30073;BME280;16897;52.422;13.678;2022-07-29T02:35:34;101442.13;;;17.52;42.10
30073;BME280;16897;52.422;13.678;2022-07-29T02:39:36;101462.16;;;17.67;42.02
30073;BME280;16897;52.422;13.678;2022-07-29T02:43:39;101466.09;;;17.62;42.36
30073;BME280;16897;52.422;13.678;2022-07-29T02:47:43;101469.13;;;17.68;41.96
30073;BME280;16897;52.422;13.678;2022-07-29T02:52:01;101447.94;;;17.57;42.24
30073;BME280;16897;52.422;13.678;2022-07-29T02:56:06;101459.97;;;17.61;42.40
30073;BME280;16897;52.422;13.678;2022-07-29T03:00:09;101462.25;;;17.66;42.31
30073;BME280;16897;52.422;13.678;2022-07-29T03:04:12;101462.72;;;17.60;42.27
30073;BME280;16897;52.422;13.678;2022-07-29T03:08:14;101445.53;;;17.54;42.34
30073;BME280;16897;52.422;13.678;2022-07-29T03:12:16;101467.44;;;17.67;42.37
30073;BME280;16897;52.422;13.678;2022-07-29T03:16:19;101470.91;;;17.68;42.38
30073;BME280;16897;52.422;13.678;2022-07-29T03:20:21;101477.91;;;17.69;42.37
30073;BME280;16897;52.422;13.678;2022-07-29T03:24:34;101460.91;;;17.60;42.42
30073;BME280;16897;52.422;13.678;2022-07-29T03:28:36;101456.59;;;17.59;42.36
30073;BME280;16897;52.422;13.678;2022-07-29T03:32:37;101462.72;;;17.60;42.51
30073;BME280;16897;52.422;13.678;2022-07-29T03:36:39;101445.13;;;17.47;42.65
30073;BME280;16897;52.422;13.678;2022-07-29T03:40:45;101442.00;;;17.42;42.44
30073;BME280;16897;52.422;13.678;2022-07-29T03:44:48;101381.41;;;17.04;42.54
30073;BME280;16897;52.422;13.678;2022-07-29T03:48:54;101463.50;;;17.49;42.77
30073;BME280;16897;52.422;13.678;2022-07-29T03:52:59;101447.13;;;17.44;42.84
30073;BME280;16897;52.422;13.678;2022-07-29T03:57:01;101441.63;;;17.47;42.74
30073;BME280;16897;52.422;13.678;2022-07-29T04:01:02;101392.03;;;17.15;42.49
30073;BME280;16897;52.422;13.678;2022-07-29T04:05:04;101394.59;;;17.28;42.70
30073;BME280;16897;52.422;13.678;2022-07-29T04:09:07;101435.78;;;17.55;42.90
30073;BME280;16897;52.422;13.678;2022-07-29T04:13:08;101347.81;;;17.06;42.55
30073;BME280;16897;52.422;13.678;2022-07-29T04:17:10;101441.53;;;17.73;42.60
30073;BME280;16897;52.422;13.678;2022-07-29T04:21:12;101449.47;;;17.73;42.72
30073;BME280;16897;52.422;13.678;2022-07-29T04:25:13;101458.06;;;17.87;42.74
30073;BME280;16897;52.422;13.678;2022-07-29T04:29:14;101445.44;;;17.80;42.85
30073;BME280;16897;52.422;13.678;2022-07-29T04:33:16;101379.69;;;17.40;42.86
30073;BME280;16897;52.422;13.678;2022-07-29T04:37:17;101385.97;;;17.50;42.93
30073;BME280;16897;52.422;13.678;2022-07-29T04:41:19;101408.72;;;17.64;42.73
30073;BME280;16897;52.422;13.678;2022-07-29T04:45:21;101452.94;;;17.97;42.90
30073;BME280;16897;52.422;13.678;2022-07-29T04:49:23;101451.16;;;17.98;42.80
30073;BME280;16897;52.422;13.678;2022-07-29T04:53:25;101459.97;;;18.09;42.78
30073;BME280;16897;52.422;13.678;2022-07-29T04:57:26;101448.53;;;18.09;43.04
30073;BME280;16897;52.422;13.678;2022-07-29T05:01:28;101459.38;;;18.17;42.75
30073;BME280;16897;52.422;13.678;2022-07-29T05:05:29;101445.56;;;18.13;42.82
30073;BME280;16897;52.422;13.678;2022-07-29T05:09:31;101449.66;;;18.18;42.97
30073;BME280;16897;52.422;13.678;2022-07-29T05:13:33;101462.91;;;18.29;43.13
30073;BME280;16897;52.422;13.678;2022-07-29T05:17:35;101465.31;;;18.32;42.95
30073;BME280;16897;52.422;13.678;2022-07-29T05:21:36;101448.63;;;18.31;43.12
30073;BME280;16897;52.422;13.678;2022-07-29T05:25:38;101465.34;;;18.43;42.95
30073;BME280;16897;52.422;13.678;2022-07-29T05:29:39;101457.16;;;18.46;43.11
30073;BME280;16897;52.422;13.678;2022-07-29T05:33:41;101462.59;;;18.56;43.17
30073;BME280;16897;52.422;13.678;2022-07-29T05:37:43;101456.47;;;18.55;43.12
30073;BME280;16897;52.422;13.678;2022-07-29T05:41:44;101415.31;;;18.40;43.05
30073;BME280;16897;52.422;13.678;2022-07-29T05:45:46;101424.69;;;18.44;43.15
30073;BME280;16897;52.422;13.678;2022-07-29T05:49:48;101461.53;;;18.70;43.30
30073;BME280;16897;52.422;13.678;2022-07-29T05:53:49;101430.97;;;18.54;43.02
30073;BME280;16897;52.422;13.678;2022-07-29T05:57:52;101446.00;;;18.65;43.18
30073;BME280;16897;52.422;13.678;2022-07-29T06:01:54;101431.09;;;18.64;43.27
30073;BME280;16897;52.422;13.678;2022-07-29T06:05:55;101391.53;;;18.40;43.15
30073;BME280;16897;52.422;13.678;2022-07-29T06:09:56;101447.72;;;18.77;43.15
30073;BME280;16897;52.422;13.678;2022-07-29T06:13:58;101363.84;;;18.33;43.15
30073;BME280;16897;52.422;13.678;2022-07-29T06:17:59;101371.34;;;18.39;43.36
30073;BME280;16897;52.422;13.678;2022-07-29T06:22:01;101442.31;;;19.01;43.17
30073;BME280;16897;52.422;13.678;2022-07-29T06:26:02;101385.53;;;18.83;43.19
30073;BME280;16897;52.422;13.678;2022-07-29T06:30:04;101382.41;;;18.89;43.35
30073;BME280;16897;52.422;13.678;2022-07-29T06:34:09;101373.00;;;18.96;43.34
30073;BME280;16897;52.422;13.678;2022-07-29T06:38:11;101399.44;;;19.19;43.28
30073;BME280;16897;52.422;13.678;2022-07-29T06:42:13;101423.19;;;19.41;43.22
30073;BME280;16897;52.422;13.678;2022-07-29T06:46:16;101444.84;;;19.69;43.23
30073;BME280;16897;52.422;13.678;2022-07-29T06:50:21;101403.66;;;19.54;43.17
30073;BME280;16897;52.422;13.678;2022-07-29T06:54:23;101426.97;;;19.71;43.00
30073;BME280;16897;52.422;13.678;2022-07-29T06:58:27;101468.28;;;20.06;42.94
30073;BME280;16897;52.422;13.678;2022-07-29T07:02:31;101413.91;;;19.91;43.05
30073;BME280;16897;52.422;13.678;2022-07-29T07:06:33;101454.44;;;20.23;43.18
30073;BME280;16897;52.422;13.678;2022-07-29T07:10:35;101447.78;;;20.29;43.03
30073;BME280;16897;52.422;13.678;2022-07-29T07:14:37;101412.22;;;20.10;43.07
30073;BME280;16897;52.422;13.678;2022-07-29T07:18:38;101398.13;;;20.10;43.11
30073;BME280;16897;52.422;13.678;2022-07-29T07:22:40;101437.44;;;20.47;43.00
30073;BME280;16897;52.422;13.678;2022-07-29T07:26:42;101394.19;;;20.35;42.92
30073;BME280;16897;52.422;13.678;2022-07-29T07:30:44;101408.63;;;20.63;43.03
30073;BME280;16897;52.422;13.678;2022-07-29T07:34:46;101466.63;;;21.08;42.99
30073;BME280;16897;52.422;13.678;2022-07-29T07:38:48;101466.81;;;21.26;43.08
30073;BME280;16897;52.422;13.678;2022-07-29T07:42:49;101464.66;;;21.51;43.12
30073;BME280;16897;52.422;13.678;2022-07-29T07:46:51;101469.28;;;21.78;42.89
30073;BME280;16897;52.422;13.678;2022-07-29T07:50:52;101466.47;;;22.08;43.15
30073;BME280;16897;52.422;13.678;2022-07-29T07:54:54;101456.13;;;22.25;42.94
30073;BME280;16897;52.422;13.678;2022-07-29T07:58:55;101383.34;;;22.06;42.47
30073;BME280;16897;52.422;13.678;2022-07-29T08:02:57;101388.75;;;22.34;42.49
30073;BME280;16897;52.422;13.678;2022-07-29T08:06:59;101423.69;;;22.86;42.29
30073;BME280;16897;52.422;13.678;2022-07-29T08:11:01;101384.75;;;22.85;42.43
30073;BME280;16897;52.422;13.678;2022-07-29T08:15:05;101391.47;;;23.17;42.37
30073;BME280;16897;52.422;13.678;2022-07-29T08:19:09;101441.50;;;23.59;42.22
30073;BME280;16897;52.422;13.678;2022-07-29T08:23:10;101411.88;;;23.62;42.33
30073;BME280;16897;52.422;13.678;2022-07-29T08:27:13;101410.00;;;23.72;42.11
30073;BME280;16897;52.422;13.678;2022-07-29T08:31:15;101395.44;;;23.84;42.02
30073;BME280;16897;52.422;13.678;2022-07-29T08:35:17;101391.41;;;24.06;41.78
30073;BME280;16897;52.422;13.678;2022-07-29T08:39:18;101449.38;;;24.66;41.74
30073;BME280;16897;52.422;13.678;2022-07-29T08:43:19;101413.28;;;24.62;41.66
30073;BME280;16897;52.422;13.678;2022-07-29T08:47:21;101418.41;;;24.90;41.70
30073;BME280;16897;52.422;13.678;2022-07-29T08:51:23;101444.25;;;25.24;41.53
30073;BME280;16897;52.422;13.678;2022-07-29T08:55:26;101416.53;;;25.33;41.35
30073;BME280;16897;52.422;13.678;2022-07-29T08:59:28;101435.94;;;25.51;41.18
30073;BME280;16897;52.422;13.678;2022-07-29T09:03:32;101385.13;;;25.35;41.33
30073;BME280;16897;52.422;13.678;2022-07-29T09:07:35;101371.41;;;25.38;40.94
30073;BME280;16897;52.422;13.678;2022-07-29T09:11:39;101425.09;;;25.77;41.13
30073;BME280;16897;52.422;13.678;2022-07-29T09:15:40;101367.56;;;25.49;40.96
30073;BME280;16897;52.422;13.678;2022-07-29T09:19:44;101419.94;;;25.84;41.00
30073;BME280;16897;52.422;13.678;2022-07-29T09:24:07;101438.66;;;25.92;41.01
30073;BME280;16897;52.422;13.678;2022-07-29T09:28:13;101400.53;;;25.82;40.67
30073;BME280;16897;52.422;13.678;2022-07-29T09:32:15;101410.75;;;25.95;40.80
30073;BME280;16897;52.422;13.678;2022-07-29T09:36:17;101403.56;;;25.87;40.34
30073;BME280;16897;52.422;13.678;2022-07-29T09:40:21;101394.19;;;25.91;40.17
30073;BME280;16897;52.422;13.678;2022-07-29T09:44:24;101340.16;;;25.71;40.56
30073;BME280;16897;52.422;13.678;2022-07-29T09:48:27;101351.38;;;25.91;40.69
30073;BME280;16897;52.422;13.678;2022-07-29T09:52:29;101387.53;;;26.43;39.96
30073;BME280;16897;52.422;13.678;2022-07-29T09:56:39;101376.00;;;26.42;40.13
30073;BME280;16897;52.422;13.678;2022-07-29T10:00:44;101421.06;;;26.86;40.10
30073;BME280;16897;52.422;13.678;2022-07-29T10:04:46;101344.78;;;26.66;40.17
30073;BME280;16897;52.422;13.678;2022-07-29T10:08:48;101340.28;;;26.89;39.67
30073;BME280;16897;52.422;13.678;2022-07-29T10:13:02;101340.22;;;27.06;39.56
30073;BME280;16897;52.422;13.678;2022-07-29T10:17:05;101339.50;;;27.12;39.51
30073;BME280;16897;52.422;13.678;2022-07-29T10:21:08;101318.03;;;27.12;39.24
30073;BME280;16897;52.422;13.678;2022-07-29T10:25:10;101332.59;;;27.41;39.10
30073;BME280;16897;52.422;13.678;2022-07-29T10:29:12;101355.31;;;27.68;39.11
30073;BME280;16897;52.422;13.678;2022-07-29T10:33:40;101409.88;;;28.06;38.56
30073;BME280;16897;52.422;13.678;2022-07-29T10:38:06;101394.50;;;28.15;38.84
30073;BME280;16897;52.422;13.678;2022-07-29T10:42:21;101396.66;;;28.19;38.53
30073;BME280;16897;52.422;13.678;2022-07-29T10:46:25;101366.81;;;28.14;38.42
30073;BME280;16897;52.422;13.678;2022-07-29T10:50:28;101384.88;;;28.35;38.53
30073;BME280;16897;52.422;13.678;2022-07-29T10:54:49;101352.94;;;28.26;38.49
30073;BME280;16897;52.422;13.678;2022-07-29T11:08:18;101371.63;;;28.63;38.49
30073;BME280;16897;52.422;13.678;2022-07-29T11:17:00;101382.16;;;28.80;38.16
30073;BME280;16897;52.422;13.678;2022-07-29T11:21:03;101362.31;;;28.81;38.17
30073;BME280;16897;52.422;13.678;2022-07-29T11:25:15;101370.34;;;28.96;38.17
30073;BME280;16897;52.422;13.678;2022-07-29T11:29:21;101345.59;;;29.00;37.98
30073;BME280;16897;52.422;13.678;2022-07-29T11:33:27;101298.69;;;28.88;38.02
30073;BME280;16897;52.422;13.678;2022-07-29T11:37:29;101327.50;;;29.09;37.90
30073;BME280;16897;52.422;13.678;2022-07-29T11:41:30;101314.75;;;29.03;37.46
30073;BME280;16897;52.422;13.678;2022-07-29T11:49:42;101351.50;;;29.32;37.60
30073;BME280;16897;52.422;13.678;2022-07-29T11:53:48;101337.75;;;29.48;37.58
30073;BME280;16897;52.422;13.678;2022-07-29T11:57:57;101277.78;;;29.26;37.66
30073;BME280;16897;52.422;13.678;2022-07-29T12:02:00;101337.38;;;29.73;37.01
30073;BME280;16897;52.422;13.678;2022-07-29T12:06:11;101331.22;;;29.79;37.07
30073;BME280;16897;52.422;13.678;2022-07-29T12:10:13;101329.22;;;29.94;37.00
30073;BME280;16897;52.422;13.678;2022-07-29T12:14:44;101340.78;;;30.16;37.28
30073;BME280;16897;52.422;13.678;2022-07-29T12:18:58;101338.78;;;30.25;37.12
30073;BME280;16897;52.422;13.678;2022-07-29T12:23:07;101331.09;;;30.29;37.03
30073;BME280;16897;52.422;13.678;2022-07-29T12:27:17;101308.91;;;30.27;37.00
30073;BME280;16897;52.422;13.678;2022-07-29T12:31:19;101294.59;;;30.26;37.15
30073;BME280;16897;52.422;13.678;2022-07-29T12:35:21;101304.38;;;30.34;37.08
30073;BME280;16897;52.422;13.678;2022-07-29T12:39:22;101306.28;;;30.40;36.87
30073;BME280;16897;52.422;13.678;2022-07-29T12:43:27;101311.88;;;30.45;36.80
30073;BME280;16897;52.422;13.678;2022-07-29T12:47:29;101307.53;;;30.44;36.60
30073;BME280;16897;52.422;13.678;2022-07-29T12:51:38;101314.19;;;30.48;36.26
30073;BME280;16897;52.422;13.678;2022-07-29T12:55:48;101283.66;;;30.34;36.91
30073;BME280;16897;52.422;13.678;2022-07-29T13:00:08;101292.44;;;30.50;36.67
30073;BME280;16897;52.422;13.678;2022-07-29T13:04:11;101263.31;;;30.32;36.68
30073;BME280;16897;52.422;13.678;2022-07-29T13:08:27;101290.56;;;30.50;36.32
30073;BME280;16897;52.422;13.678;2022-07-29T13:12:29;101264.59;;;30.36;36.12
30073;BME280;16897;52.422;13.678;2022-07-29T13:16:31;101248.72;;;30.13;36.20
30073;BME280;16897;52.422;13.678;2022-07-29T13:20:33;101265.53;;;30.15;36.09
30073;BME280;16897;52.422;13.678;2022-07-29T13:24:51;101275.47;;;30.21;36.32
30073;BME280;16897;52.422;13.678;2022-07-29T13:28:53;101252.47;;;30.18;35.89
30073;BME280;16897;52.422;13.678;2022-07-29T13:32:54;101259.22;;;30.36;35.97
30073;BME280;16897;52.422;13.678;2022-07-29T13:36:56;101245.97;;;30.48;35.96
30073;BME280;16897;52.422;13.678;2022-07-29T13:40:58;101263.22;;;30.60;35.77
30073;BME280;16897;52.422;13.678;2022-07-29T13:45:00;101269.44;;;30.67;35.66
30073;BME280;16897;52.422;13.678;2022-07-29T13:49:02;101245.59;;;30.64;36.00
30073;BME280;16897;52.422;13.678;2022-07-29T13:53:03;101238.75;;;30.68;35.62
30073;BME280;16897;52.422;13.678;2022-07-29T13:57:05;101255.00;;;30.81;35.82
30073;BME280;16897;52.422;13.678;2022-07-29T14:01:06;101247.09;;;30.86;35.44
30073;BME280;16897;52.422;13.678;2022-07-29T14:05:08;101238.63;;;30.90;35.25
30073;BME280;16897;52.422;13.678;2022-07-29T14:09:11;101231.97;;;30.92;35.48
30073;BME280;16897;52.422;13.678;2022-07-29T14:13:13;101255.00;;;31.01;35.46
30073;BME280;16897;52.422;13.678;2022-07-29T14:17:15;101237.97;;;30.88;35.24
30073;BME280;16897;52.422;13.678;2022-07-29T14:21:16;101195.38;;;30.50;35.30
30073;BME280;16897;52.422;13.678;2022-07-29T14:25:17;101235.00;;;30.69;35.30
30073;BME280;16897;52.422;13.678;2022-07-29T14:29:19;101164.78;;;30.16;35.42
30073;BME280;16897;52.422;13.678;2022-07-29T14:33:20;101222.97;;;30.58;35.34
30073;BME280;16897;52.422;13.678;2022-07-29T14:37:22;101155.53;;;30.25;35.11
30073;BME280;16897;52.422;13.678;2022-07-29T14:41:27;101214.06;;;30.71;35.30
30073;BME280;16897;52.422;13.678;2022-07-29T14:45:29;101167.59;;;30.49;35.00
30073;BME280;16897;52.422;13.678;2022-07-29T14:49:30;101120.28;;;30.27;35.18
30073;BME280;16897;52.422;13.678;2022-07-29T14:53:31;101166.56;;;30.70;35.34
30073;BME280;16897;52.422;13.678;2022-07-29T14:57:33;101184.84;;;31.01;34.79
30073;BME280;16897;52.422;13.678;2022-07-29T15:01:34;101160.59;;;30.95;34.88
30073;BME280;16897;52.422;13.678;2022-07-29T15:05:35;101179.44;;;31.15;34.80
30073;BME280;16897;52.422;13.678;2022-07-29T15:09:37;101154.78;;;30.98;34.60
30073;BME280;16897;52.422;13.678;2022-07-29T15:13:39;101136.09;;;30.76;34.43
30073;BME280;16897;52.422;13.678;2022-07-29T15:17:40;101203.72;;;31.08;34.55
30073;BME280;16897;52.422;13.678;2022-07-29T15:21:41;101146.25;;;30.61;34.33
30073;BME280;16897;52.422;13.678;2022-07-29T15:25:43;101163.47;;;30.60;34.36
30073;BME280;16897;52.422;13.678;2022-07-29T15:29:44;101125.06;;;30.31;34.43
30073;BME280;16897;52.422;13.678;2022-07-29T15:33:46;101106.16;;;30.11;34.42
30073;BME280;16897;52.422;13.678;2022-07-29T15:37:47;101177.16;;;30.52;34.73
30073;BME280;16897;52.422;13.678;2022-07-29T15:41:49;101150.34;;;30.37;34.48
30073;BME280;16897;52.422;13.678;2022-07-29T15:45:51;101168.41;;;30.50;34.31
30073;BME280;16897;52.422;13.678;2022-07-29T15:50:11;101160.97;;;30.52;34.03
30073;BME280;16897;52.422;13.678;2022-07-29T15:54:16;101155.56;;;30.52;34.13
30073;BME280;16897;52.422;13.678;2022-07-29T15:58:17;101159.28;;;30.51;33.74
30073;BME280;16897;52.422;13.678;2022-07-29T16:02:19;101163.44;;;30.53;33.79
30073;BME280;16897;52.422;13.678;2022-07-29T16:06:20;101188.78;;;30.65;33.85
30073;BME280;16897;52.422;13.678;2022-07-29T16:10:22;101154.09;;;30.42;34.05
30073;BME280;16897;52.422;13.678;2022-07-29T16:14:23;101136.88;;;30.30;33.93
30073;BME280;16897;52.422;13.678;2022-07-29T16:18:25;101144.78;;;30.45;33.52
30073;BME280;16897;52.422;13.678;2022-07-29T16:22:26;101172.16;;;30.62;33.67
30073;BME280;16897;52.422;13.678;2022-07-29T16:26:28;101165.53;;;30.64;33.47
30073;BME280;16897;52.422;13.678;2022-07-29T16:30:29;101112.41;;;30.32;33.72
30073;BME280;16897;52.422;13.678;2022-07-29T16:34:31;101098.13;;;30.25;33.50
30073;BME280;16897;52.422;13.678;2022-07-29T16:38:32;101123.63;;;30.35;33.49
30073;BME280;16897;52.422;13.678;2022-07-29T16:42:34;101115.34;;;30.30;33.69
30073;BME280;16897;52.422;13.678;2022-07-29T16:46:35;101153.28;;;30.55;33.70
30073;BME280;16897;52.422;13.678;2022-07-29T16:50:37;101101.16;;;30.08;33.49
30073;BME280;16897;52.422;13.678;2022-07-29T16:54:39;101095.75;;;30.02;33.57
30073;BME280;16897;52.422;13.678;2022-07-29T16:58:41;101097.81;;;29.93;33.56
30073;BME280;16897;52.422;13.678;2022-07-29T17:02:43;101140.75;;;30.21;33.23
30073;BME280;16897;52.422;13.678;2022-07-29T17:06:44;101145.31;;;30.14;33.34
30073;BME280;16897;52.422;13.678;2022-07-29T17:10:46;101090.69;;;29.72;33.23
30073;BME280;16897;52.422;13.678;2022-07-29T17:14:47;101112.25;;;29.78;33.49
30073;BME280;16897;52.422;13.678;2022-07-29T17:18:51;101094.59;;;29.63;33.43
30073;BME280;16897;52.422;13.678;2022-07-29T17:22:53;101081.06;;;29.49;33.60
30073;BME280;16897;52.422;13.678;2022-07-29T17:26:55;101115.53;;;29.67;33.34
30073;BME280;16897;52.422;13.678;2022-07-29T17:30:57;101132.53;;;29.68;33.53
30073;BME280;16897;52.422;13.678;2022-07-29T17:34:58;101094.47;;;29.36;33.25
30073;BME280;16897;52.422;13.678;2022-07-29T17:39:03;101095.06;;;29.31;33.13
30073;BME280;16897;52.422;13.678;2022-07-29T17:43:05;101123.81;;;29.31;33.28
30073;BME280;16897;52.422;13.678;2022-07-29T17:47:09;101121.09;;;29.24;33.65
30073;BME280;16897;52.422;13.678;2022-07-29T17:51:11;101059.31;;;28.75;33.33
30073;BME280;16897;52.422;13.678;2022-07-29T17:55:12;101134.25;;;29.13;33.75
30073;BME280;16897;52.422;13.678;2022-07-29T17:59:14;101152.84;;;29.07;33.31
30073;BME280;16897;52.422;13.678;2022-07-29T18:03:16;101159.06;;;29.08;33.47
30073;BME280;16897;52.422;13.678;2022-07-29T18:07:17;101160.50;;;29.04;33.31
30073;BME280;16897;52.422;13.678;2022-07-29T18:11:18;101135.63;;;28.74;33.29
30073;BME280;16897;52.422;13.678;2022-07-29T18:15:20;101067.97;;;28.27;33.35
30073;BME280;16897;52.422;13.678;2022-07-29T18:19:21;101103.41;;;28.37;33.49
30073;BME280;16897;52.422;13.678;2022-07-29T18:23:22;101062.16;;;28.02;33.41
30073;BME280;16897;52.422;13.678;2022-07-29T18:27:24;101057.97;;;27.93;33.55
30073;BME280;16897;52.422;13.678;2022-07-29T18:31:26;101117.66;;;28.16;33.72
30073;BME280;16897;52.422;13.678;2022-07-29T18:35:28;101083.88;;;27.86;33.56
30073;BME280;16897;52.422;13.678;2022-07-29T18:39:29;101142.59;;;28.10;33.46
30073;BME280;16897;52.422;13.678;2022-07-29T18:43:31;101125.06;;;27.93;33.45
30073;BME280;16897;52.422;13.678;2022-07-29T18:47:32;101165.88;;;28.03;33.47
30073;BME280;16897;52.422;13.678;2022-07-29T18:51:35;101109.28;;;27.68;33.86
30073;BME280;16897;52.422;13.678;2022-07-29T18:55:37;101144.44;;;27.73;33.83
30073;BME280;16897;52.422;13.678;2022-07-29T18:59:39;101166.00;;;27.80;33.92
30073;BME280;16897;52.422;13.678;2022-07-29T19:03:40;101139.00;;;27.52;33.86
30073;BME280;16897;52.422;13.678;2022-07-29T19:07:42;101137.22;;;27.44;33.52
30073;BME280;16897;52.422;13.678;2022-07-29T19:11:43;101137.34;;;27.36;33.58
30073;BME280;16897;52.422;13.678;2022-07-29T19:15:44;101214.94;;;27.67;33.34
30073;BME280;16897;52.422;13.678;2022-07-29T19:19:46;101121.56;;;27.03;33.68
30073;BME280;16897;52.422;13.678;2022-07-29T19:23:48;101152.63;;;27.12;33.64
30073;BME280;16897;52.422;13.678;2022-07-29T19:27:50;101159.44;;;27.00;33.62
30073;BME280;16897;52.422;13.678;2022-07-29T19:31:52;101230.19;;;27.37;34.09
30073;BME280;16897;52.422;13.678;2022-07-29T19:35:54;101106.75;;;26.55;33.78
30073;BME280;16897;52.422;13.678;2022-07-29T19:39:55;101116.00;;;26.52;33.80
30073;BME280;16897;52.422;13.678;2022-07-29T19:43:57;101180.19;;;26.83;34.08
30073;BME280;16897;52.422;13.678;2022-07-29T19:47:58;101157.66;;;26.55;33.61
30073;BME280;16897;52.422;13.678;2022-07-29T19:52:00;101163.88;;;26.47;33.69
30073;BME280;16897;52.422;13.678;2022-07-29T19:56:05;101225.28;;;26.80;33.69
30073;BME280;16897;52.422;13.678;2022-07-29T20:00:07;101160.44;;;26.30;33.68
30073;BME280;16897;52.422;13.678;2022-07-29T20:04:09;101181.72;;;26.32;33.98
30073;BME280;16897;52.422;13.678;2022-07-29T20:08:10;101193.91;;;26.34;33.67
30073;BME280;16897;52.422;13.678;2022-07-29T20:12:11;101172.94;;;26.15;34.07
30073;BME280;16897;52.422;13.678;2022-07-29T20:16:13;101173.16;;;26.05;33.91
30073;BME280;16897;52.422;13.678;2022-07-29T20:20:14;101223.06;;;26.29;33.96
30073;BME280;16897;52.422;13.678;2022-07-29T20:24:17;101185.88;;;26.03;34.13
30073;BME280;16897;52.422;13.678;2022-07-29T20:28:18;101194.09;;;26.01;34.17
30073;BME280;16897;52.422;13.678;2022-07-29T20:32:20;101218.16;;;26.10;33.83
30073;BME280;16897;52.422;13.678;2022-07-29T20:36:21;101194.50;;;25.90;34.16
30073;BME280;16897;52.422;13.678;2022-07-29T20:40:24;101215.50;;;26.01;33.96
30073;BME280;16897;52.422;13.678;2022-07-29T20:44:25;101180.81;;;25.69;33.77
30073;BME280;16897;52.422;13.678;2022-07-29T20:48:27;101167.66;;;25.51;34.11
30073;BME280;16897;52.422;13.678;2022-07-29T20:52:29;101132.81;;;25.11;34.20
30073;BME280;16897;52.422;13.678;2022-07-29T20:56:31;101160.88;;;25.24;34.49
30073;BME280;16897;52.422;13.678;2022-07-29T21:00:33;101131.34;;;24.92;34.20
30073;BME280;16897;52.422;13.678;2022-07-29T21:04:34;101171.25;;;25.19;34.11
30073;BME280;16897;52.422;13.678;2022-07-29T21:08:37;101176.09;;;25.15;34.43
30073;BME280;16897;52.422;13.678;2022-07-29T21:12:39;101205.63;;;25.30;34.39
30073;BME280;16897;52.422;13.678;2022-07-29T21:16:42;101180.91;;;25.03;34.29
30073;BME280;16897;52.422;13.678;2022-07-29T21:20:43;101209.13;;;25.14;34.23